createdAt,value
2018-03-20T00:02:15.546Z,98982.31
2018-03-20T00:04:43.095Z,98982.94
2018-03-20T00:07:10.695Z,98987.23
2018-03-20T00:09:38.242Z,98989.77
2018-03-20T00:12:05.805Z,98990.55
2018-03-20T00:14:33.352Z,98989.44
2018-03-20T00:17:00.908Z,98995.71
2018-03-20T00:19:28.465Z,98992.00
2018-03-20T00:21:56.033Z,98999.36
2018-03-20T00:24:23.568Z,98995.61
2018-03-20T00:26:51.091Z,99004.93
2018-03-20T00:29:18.722Z,99004.97
2018-03-20T00:31:46.256Z,98997.53
2018-03-20T00:34:13.846Z,98992.83
2018-03-20T00:36:41.399Z,98999.14
2018-03-20T00:39:08.951Z,99003.98
2018-03-20T00:41:36.624Z,99004.34
2018-03-20T00:44:04.184Z,99013.50
2018-03-20T00:46:31.716Z,99021.75
2018-03-20T00:48:59.283Z,99024.56
2018-03-20T00:51:26.807Z,99020.89
2018-03-20T00:53:54.417Z,99028.26
2018-03-20T00:56:21.984Z,99035.15
2018-03-20T00:58:49.536Z,99026.55
2018-03-20T01:01:17.119Z,99025.04
2018-03-20T01:03:44.661Z,99031.95
2018-03-20T01:06:12.214Z,99024.28
2018-03-20T01:08:39.746Z,99030.42
2018-03-20T01:11:07.312Z,99038.23
2018-03-20T01:13:34.852Z,99032.37
2018-03-20T01:16:02.406Z,99028.15
2018-03-20T01:18:29.948Z,99025.70
2018-03-20T01:20:57.487Z,99032.84
2018-03-20T01:23:25.935Z,98998.95
2018-03-20T01:25:53.469Z,99031.03
2018-03-20T01:28:21.031Z,99031.45
2018-03-20T01:30:48.563Z,99033.73
2018-03-20T01:33:16.124Z,99027.98
2018-03-20T01:35:43.649Z,99033.58
2018-03-20T01:38:11.281Z,99034.15
2018-03-20T01:40:38.806Z,99040.61
2018-03-20T01:43:06.348Z,99036.08
2018-03-20T01:45:33.904Z,99032.72
2018-03-20T01:48:01.444Z,99034.84
2018-03-20T01:50:29.005Z,99038.02
2018-03-20T01:53:08.265Z,99023.28
2018-03-20T01:55:35.845Z,99035.41
2018-03-20T01:58:03.422Z,99033.61
2018-03-20T02:00:31.049Z,99033.09
2018-03-20T02:02:58.580Z,99025.86
2018-03-20T02:05:26.651Z,99016.74
2018-03-20T02:07:54.196Z,99039.67
2018-03-20T02:10:21.737Z,99051.08
2018-03-20T02:12:49.311Z,99041.16
2018-03-20T02:15:16.864Z,99034.27
2018-03-20T02:17:44.432Z,99033.33
2018-03-20T02:20:11.968Z,99038.77
2018-03-20T02:22:39.533Z,99044.57
2018-03-20T02:25:07.055Z,99044.81
2018-03-20T02:27:34.638Z,99043.25
2018-03-20T02:30:02.184Z,99035.41
2018-03-20T02:32:29.779Z,99045.23
2018-03-20T02:34:57.310Z,99052.93
2018-03-20T02:37:24.835Z,99054.59
2018-03-20T02:39:52.403Z,99059.06
2018-03-20T02:42:20.034Z,99055.47
2018-03-20T02:44:47.599Z,99050.21
2018-03-20T02:47:15.148Z,99069.22
2018-03-20T02:49:42.716Z,99068.40
2018-03-20T02:52:10.252Z,99067.25
2018-03-20T02:54:37.812Z,99072.84
2018-03-20T02:57:05.392Z,99072.30
2018-03-20T02:59:32.982Z,99084.78
2018-03-20T03:02:00.508Z,99086.92
2018-03-20T03:04:28.062Z,99084.86
2018-03-20T03:06:55.616Z,99081.91
2018-03-20T03:09:23.157Z,99076.77
2018-03-20T03:11:50.722Z,99074.20
2018-03-20T03:14:18.297Z,99080.11
2018-03-20T03:16:46.271Z,99084.26
2018-03-20T03:19:14.022Z,99089.91
2018-03-20T03:21:41.628Z,99087.77
2018-03-20T03:24:10.131Z,99092.45
2018-03-20T03:26:37.759Z,99098.11
2018-03-20T03:29:05.522Z,99104.05
2018-03-20T03:31:33.075Z,99108.94
2018-03-20T03:34:00.635Z,99110.53
2018-03-20T03:36:28.189Z,99114.38
2018-03-20T03:38:55.768Z,99110.58
2018-03-20T03:41:23.295Z,99118.74
2018-03-20T03:43:50.925Z,99116.00
2018-03-20T03:46:18.472Z,99130.50
2018-03-20T03:48:46.178Z,99140.05
2018-03-20T03:51:13.709Z,99148.16
2018-03-20T03:53:41.265Z,99145.86
2018-03-20T03:56:08.850Z,99142.88
2018-03-20T03:58:36.375Z,99147.04
2018-03-20T04:01:03.938Z,99147.83
2018-03-20T04:03:31.485Z,99153.11
2018-03-20T04:05:59.057Z,99154.69
2018-03-20T04:08:27.064Z,99158.75
2018-03-20T04:10:54.617Z,99153.86
2018-03-20T04:13:22.162Z,99164.53
2018-03-20T04:15:49.740Z,99153.50
2018-03-20T04:18:17.271Z,99151.71
2018-03-20T04:20:44.797Z,99156.91
2018-03-20T04:23:12.348Z,99160.70
2018-03-20T04:25:39.884Z,99157.38
2018-03-20T04:28:07.435Z,99160.82
2018-03-20T04:30:34.954Z,99164.79
2018-03-20T04:33:02.528Z,99172.09
2018-03-20T04:35:30.056Z,99182.47
2018-03-20T04:37:57.613Z,99176.38
2018-03-20T04:40:25.128Z,99173.76
2018-03-20T04:42:52.716Z,99178.33
2018-03-20T04:45:20.252Z,99171.53
2018-03-20T04:47:47.808Z,99170.68
2018-03-20T04:50:15.351Z,99171.39
2018-03-20T04:52:42.936Z,99183.38
2018-03-20T04:55:10.509Z,99188.02
2018-03-20T04:57:38.043Z,99188.47
2018-03-20T05:00:05.709Z,99197.64
2018-03-20T05:02:33.236Z,99193.28
2018-03-20T05:05:00.800Z,99198.44
2018-03-20T05:07:28.344Z,99193.33
2018-03-20T05:09:55.899Z,99195.67
2018-03-20T05:12:23.423Z,99201.48
2018-03-20T05:14:50.959Z,99199.44
2018-03-20T05:17:18.545Z,99200.41
2018-03-20T05:19:51.684Z,99211.09
2018-03-20T05:25:22.260Z,99214.04
2018-03-20T05:27:49.827Z,99221.20
2018-03-20T05:30:17.371Z,99221.98
2018-03-20T05:32:44.948Z,99224.23
2018-03-20T05:35:12.502Z,99230.70
2018-03-20T05:37:40.067Z,99238.30
2018-03-20T05:40:07.603Z,99240.47
2018-03-20T05:42:35.163Z,99244.29
2018-03-20T05:45:02.711Z,99245.97
2018-03-20T05:47:35.929Z,99248.56
2018-03-20T05:50:09.156Z,99256.34
2018-03-20T05:52:36.707Z,99259.80
2018-03-20T05:55:04.455Z,99256.76
2018-03-20T05:57:32.037Z,99259.75
2018-03-20T05:59:59.617Z,99254.73
2018-03-20T06:02:27.155Z,99255.05
2018-03-20T06:04:54.723Z,99255.39
2018-03-20T06:07:22.333Z,99262.22
2018-03-20T06:09:49.888Z,99269.48
2018-03-20T06:12:17.433Z,99282.71
2018-03-20T06:14:45.142Z,99274.17
2018-03-20T06:17:12.832Z,99277.07
2018-03-20T06:19:42.975Z,99284.34
2018-03-20T06:22:10.588Z,99290.77
2018-03-20T06:24:38.226Z,99282.66
2018-03-20T06:27:05.742Z,99280.91
2018-03-20T06:29:33.749Z,99283.81
2018-03-20T06:32:01.319Z,99291.12
2018-03-20T06:34:29.329Z,99296.50
2018-03-20T06:36:56.890Z,99313.59
2018-03-20T06:39:24.501Z,99314.87
2018-03-20T06:41:52.057Z,99299.90
2018-03-20T06:44:19.590Z,99305.80
2018-03-20T06:46:47.168Z,99303.60
2018-03-20T06:49:14.712Z,99303.12
2018-03-20T06:51:42.289Z,99304.28
2018-03-20T06:54:09.811Z,99295.27
2018-03-20T06:56:37.414Z,99298.59
2018-03-20T06:59:05.676Z,99301.08
2018-03-20T07:01:34.507Z,99298.02
2018-03-20T07:04:02.096Z,99296.64
2018-03-20T07:06:29.881Z,99301.69
2018-03-20T07:08:57.683Z,99297.02
2018-03-20T07:11:25.224Z,99302.98
2018-03-20T07:13:55.940Z,99314.11
2018-03-20T07:16:23.670Z,99330.30
2018-03-20T07:18:51.249Z,99327.26
2018-03-20T07:21:18.789Z,99341.31
2018-03-20T07:23:46.348Z,99346.88
2018-03-20T07:26:13.872Z,99342.76
2018-03-20T07:28:41.391Z,99346.91
2018-03-20T07:31:08.979Z,99344.75
2018-03-20T07:33:36.498Z,99342.88
2018-03-20T07:36:06.646Z,99334.69
2018-03-20T07:38:34.397Z,99340.59
2018-03-20T07:41:04.577Z,99341.80
2018-03-20T07:43:32.379Z,99351.08
2018-03-20T07:46:00.143Z,99354.78
2018-03-20T07:48:27.691Z,99342.78
2018-03-20T07:50:55.623Z,99355.72
2018-03-20T07:53:23.132Z,99352.31
2018-03-20T07:55:50.727Z,99351.30
2018-03-20T07:58:18.237Z,99354.36
2018-03-20T08:00:45.771Z,99344.00
2018-03-20T08:03:13.396Z,99360.20
2018-03-20T08:05:40.932Z,99345.80
2018-03-20T08:08:08.560Z,99356.09
2018-03-20T08:10:36.090Z,99347.83
2018-03-20T08:13:03.659Z,99353.65
2018-03-20T08:15:32.152Z,99361.58
2018-03-20T08:17:59.738Z,99344.00
2018-03-20T08:20:27.289Z,99342.74
2018-03-20T08:22:54.852Z,99343.11
2018-03-20T08:25:22.400Z,99343.96
2018-03-20T08:27:50.010Z,99344.44
2018-03-20T08:30:17.559Z,99345.61
2018-03-20T08:32:45.083Z,99345.13
2018-03-20T08:35:12.629Z,99348.67
2018-03-20T08:37:40.206Z,99345.70
2018-03-20T08:40:07.909Z,99345.52
2018-03-20T08:42:35.446Z,99342.73
2018-03-20T08:45:03.030Z,99337.70
2018-03-20T08:47:30.552Z,99339.98
2018-03-20T08:49:58.086Z,99346.09
2018-03-20T08:52:25.631Z,99339.25
2018-03-20T08:54:53.162Z,99350.88
2018-03-20T08:57:20.699Z,99351.59
2018-03-20T08:59:48.255Z,99348.33
2018-03-20T09:02:16.570Z,99355.72
2018-03-20T09:04:44.468Z,99354.25
2018-03-20T09:07:12.160Z,99358.38
2018-03-20T09:09:39.694Z,99358.48
2018-03-20T09:12:09.377Z,99360.92
2018-03-20T09:14:36.884Z,99358.95
2018-03-20T09:17:04.778Z,99362.87
2018-03-20T09:19:32.599Z,99371.10
2018-03-20T09:22:04.450Z,99370.55
2018-03-20T09:24:32.386Z,99380.39
2018-03-20T09:27:00.278Z,99386.47
2018-03-20T09:29:28.005Z,99386.17
2018-03-20T09:31:55.518Z,99395.31
2018-03-20T09:34:23.287Z,99393.05
2018-03-20T09:36:50.918Z,99390.29
2018-03-20T09:39:19.455Z,99397.94
2018-03-20T09:41:47.027Z,99399.66
2018-03-20T09:44:14.627Z,99385.72
2018-03-20T09:46:42.487Z,99393.80
2018-03-20T09:49:10.171Z,99398.33
2018-03-20T09:51:37.761Z,99400.97
2018-03-20T09:54:05.686Z,99402.03
2018-03-20T09:56:33.222Z,99398.31
2018-03-20T09:59:00.740Z,99398.66
2018-03-20T10:01:28.313Z,99396.11
2018-03-20T10:03:55.840Z,99386.74
2018-03-20T10:06:23.400Z,99393.59
2018-03-20T10:08:50.932Z,99390.48
2018-03-20T10:11:18.500Z,99384.62
2018-03-20T10:13:46.031Z,99388.77
2018-03-20T10:16:13.600Z,99402.98
2018-03-20T10:18:44.062Z,99394.79
2018-03-20T10:21:13.061Z,99404.20
2018-03-20T10:23:44.433Z,99405.98
2018-03-20T10:26:13.932Z,99404.44
2018-03-20T10:28:44.067Z,99396.33
2018-03-20T10:31:13.168Z,99404.45
2018-03-20T10:33:42.967Z,99403.02
2018-03-20T10:36:13.262Z,99404.74
2018-03-20T10:38:41.507Z,99410.94
2018-03-20T10:41:09.253Z,99423.69
2018-03-20T10:43:41.969Z,99423.65
2018-03-20T10:46:10.283Z,99416.45
2018-03-20T10:48:40.534Z,99411.44
2018-03-20T10:51:10.498Z,99405.20
2018-03-20T10:53:41.757Z,99413.11
2018-03-20T10:56:10.588Z,99419.05
2018-03-20T10:58:41.975Z,99414.02
2018-03-20T11:01:15.411Z,99419.67
2018-03-20T11:03:42.959Z,99425.48
2018-03-20T11:06:13.411Z,99417.42
2018-03-20T11:08:44.269Z,99424.80
2018-03-20T11:11:14.501Z,99424.80
2018-03-20T11:13:45.123Z,99438.44
2018-03-20T11:16:15.646Z,99438.28
2018-03-20T11:18:44.225Z,99434.94
2018-03-20T11:21:14.948Z,99436.59
2018-03-20T11:23:46.094Z,99434.84
2018-03-20T11:26:13.722Z,99434.62
2018-03-20T11:28:47.725Z,99431.30
2018-03-20T11:31:19.007Z,99434.30
2018-03-20T11:33:50.675Z,99438.19
2018-03-20T11:36:21.202Z,99445.30
2018-03-20T11:38:48.934Z,99449.14
2018-03-20T11:41:18.380Z,99453.58
2018-03-20T11:43:47.682Z,99442.67
2018-03-20T11:46:15.396Z,99447.57
2018-03-20T11:48:43.054Z,99446.70
2018-03-20T11:51:15.875Z,99451.25
2018-03-20T11:53:49.146Z,99441.88
2018-03-20T11:56:22.244Z,99447.50
2018-03-20T11:58:52.208Z,99453.42
2018-03-20T12:01:20.497Z,99456.05
2018-03-20T12:03:50.839Z,99458.44
2018-03-20T12:06:19.928Z,99463.41
2018-03-20T12:08:51.276Z,99466.03
2018-03-20T12:11:18.783Z,99461.56
2018-03-20T12:13:46.356Z,99464.70
2018-03-20T12:16:13.868Z,99456.89
2018-03-20T12:18:41.406Z,99464.66
2018-03-20T12:21:08.911Z,99476.83
2018-03-20T12:23:36.525Z,99476.05
2018-03-20T12:26:04.044Z,99479.24
2018-03-20T12:28:31.596Z,99476.23
2018-03-20T12:30:59.131Z,99467.69
2018-03-20T12:33:26.670Z,99483.39
2018-03-20T12:35:54.232Z,99499.53
2018-03-20T12:38:21.776Z,99493.36
2018-03-20T12:40:49.343Z,99505.20
2018-03-20T12:43:16.860Z,99506.50
2018-03-20T12:45:44.437Z,99520.00
2018-03-20T12:48:11.945Z,99524.28
2018-03-20T12:50:39.497Z,99514.20
2018-03-20T12:53:07.020Z,99513.05
2018-03-20T12:55:34.572Z,99522.98
2018-03-20T12:58:02.248Z,99518.85
2018-03-20T13:00:29.856Z,99517.27
2018-03-20T13:02:57.377Z,99528.82
2018-03-20T13:05:24.965Z,99521.53
2018-03-20T13:07:52.589Z,99517.78
2018-03-20T13:10:20.152Z,99518.38
2018-03-20T13:12:47.667Z,99527.48
2018-03-20T13:15:15.219Z,99526.13
2018-03-20T13:17:42.790Z,99525.25
2018-03-20T13:20:10.348Z,99522.69
2018-03-20T13:22:37.903Z,99523.06
2018-03-20T13:25:06.229Z,99525.30
2018-03-20T13:27:34.318Z,99531.75
2018-03-20T13:30:03.418Z,99541.31
2018-03-20T13:32:30.974Z,99529.80
2018-03-20T13:35:01.092Z,99522.48
2018-03-20T13:37:28.827Z,99538.09
2018-03-20T13:39:57.132Z,99543.44
2018-03-20T13:42:24.731Z,99532.45
2018-03-20T13:44:55.085Z,99542.03
2018-03-20T13:47:26.899Z,99533.86
2018-03-20T13:49:54.620Z,99539.00
2018-03-20T13:52:22.144Z,99536.20
2018-03-20T13:54:50.232Z,99559.78
2018-03-20T13:57:17.743Z,99537.11
2018-03-20T13:59:45.310Z,99551.16
2018-03-20T14:02:13.504Z,99541.98
2018-03-20T14:04:41.066Z,99540.47
2018-03-20T14:07:08.618Z,99545.05
2018-03-20T14:09:36.449Z,99533.91
2018-03-20T14:12:04.267Z,99550.47
2018-03-20T14:14:31.892Z,99541.67
2018-03-20T14:16:59.439Z,99540.94
2018-03-20T14:19:26.979Z,99559.66
2018-03-20T14:21:57.087Z,99550.49
2018-03-20T14:24:28.345Z,99542.15
2018-03-20T14:26:59.943Z,99554.70
2018-03-20T14:29:31.963Z,99556.74
2018-03-20T14:32:04.103Z,99554.50
2018-03-20T14:34:35.476Z,99550.28
2018-03-20T14:37:06.401Z,99564.24
2018-03-20T14:42:14.763Z,99562.67
2018-03-20T14:44:47.562Z,99569.75
2018-03-20T14:47:23.420Z,99583.67
2018-03-20T14:49:55.621Z,99576.33
2018-03-20T14:52:31.882Z,99571.06
2018-03-20T14:55:03.428Z,99574.37
2018-03-20T14:57:37.954Z,99576.91
2018-03-20T15:00:19.916Z,99581.38
2018-03-20T15:02:54.244Z,99597.88
2018-03-20T15:05:26.298Z,99588.09
2018-03-20T15:07:58.728Z,99586.57
2018-03-20T15:10:29.623Z,99604.87
2018-03-20T15:13:00.908Z,99609.16
2018-03-20T15:15:31.778Z,99604.37
2018-03-20T15:18:03.797Z,99605.68
2018-03-20T15:20:36.873Z,99607.88
2018-03-20T15:23:07.487Z,99596.90
2018-03-20T15:25:40.033Z,99613.08
2018-03-20T15:28:11.297Z,99611.98
2018-03-20T15:30:43.242Z,99618.95
2018-03-20T15:33:14.294Z,99609.85
2018-03-20T15:35:47.108Z,99611.03
2018-03-20T15:38:19.657Z,99608.80
2018-03-20T15:40:50.579Z,99625.98
2018-03-20T15:43:22.080Z,99615.79
2018-03-20T15:45:53.024Z,99620.75
2018-03-20T15:48:24.864Z,99612.61
2018-03-20T15:50:55.569Z,99614.83
2018-03-20T15:53:26.613Z,99616.09
2018-03-20T15:55:58.468Z,99617.20
2018-03-20T15:58:31.092Z,99619.43
2018-03-20T16:00:59.875Z,99618.73
2018-03-20T16:03:29.429Z,99629.92
2018-03-20T16:05:59.398Z,99630.56
2018-03-20T16:08:32.064Z,99649.69
2018-03-20T16:11:00.224Z,99639.45
2018-03-20T16:13:27.972Z,99640.83
2018-03-20T16:15:55.482Z,99636.25
2018-03-20T16:18:27.373Z,99650.81
2018-03-20T16:20:57.978Z,99650.78
2018-03-20T16:23:26.005Z,99653.23
2018-03-20T16:25:53.639Z,99652.19
2018-03-20T16:28:23.517Z,99663.27
2018-03-20T16:30:53.575Z,99664.59
2018-03-20T16:33:22.264Z,99665.23
2018-03-20T16:35:51.355Z,99671.36
2018-03-20T16:38:19.111Z,99668.17
2018-03-20T16:40:46.656Z,99683.00
2018-03-20T16:43:16.871Z,99685.23
2018-03-20T16:45:45.364Z,99687.94
2018-03-20T16:48:13.505Z,99693.43
2018-03-20T16:50:41.898Z,99702.50
2018-03-20T16:53:10.817Z,99703.30
2018-03-20T16:55:43.053Z,99708.75
2018-03-20T16:58:11.325Z,99719.87
2018-03-20T17:00:39.252Z,99715.96
2018-03-20T17:03:07.569Z,99720.13
2018-03-20T17:05:35.602Z,99722.91
2018-03-20T17:08:04.360Z,99724.92
2018-03-20T17:10:31.906Z,99727.48
2018-03-20T17:13:01.501Z,99745.28
2018-03-20T17:15:31.049Z,99739.51
2018-03-20T17:18:02.693Z,99746.11
2018-03-20T17:20:30.641Z,99759.28
2018-03-20T17:23:01.924Z,99764.15
2018-03-20T17:25:31.993Z,99766.41
2018-03-20T17:28:02.542Z,99772.31
2018-03-20T17:30:32.594Z,99777.15
2018-03-20T17:33:03.821Z,99776.73
2018-03-20T17:35:38.697Z,99772.05
2018-03-20T17:38:06.926Z,99769.25
2018-03-20T17:40:35.462Z,99781.91
2018-03-20T17:43:03.255Z,99783.31
2018-03-20T17:45:34.827Z,99784.52
2018-03-20T17:48:02.388Z,99800.22
2018-03-20T17:50:29.922Z,99804.58
2018-03-20T17:52:57.474Z,99808.34
2018-03-20T17:55:25.004Z,99813.18
2018-03-20T17:57:52.561Z,99818.28
2018-03-20T18:00:20.082Z,99826.01
2018-03-20T18:02:47.636Z,99827.27
2018-03-20T18:05:15.172Z,99830.71
2018-03-20T18:07:42.687Z,99840.91
2018-03-20T18:10:10.230Z,99837.52
2018-03-20T18:12:37.751Z,99843.89
2018-03-20T18:15:05.436Z,99853.98
2018-03-20T18:17:32.991Z,99852.03
2018-03-20T18:20:00.548Z,99853.85
2018-03-20T18:22:28.100Z,99855.94
2018-03-20T18:24:55.642Z,99870.45
2018-03-20T18:27:23.221Z,99867.52
2018-03-20T18:29:51.110Z,99873.14
2018-03-20T18:32:18.663Z,99878.86
2018-03-20T18:34:46.883Z,99890.84
2018-03-20T18:37:15.629Z,99892.61
2018-03-20T18:39:43.233Z,99900.80
2018-03-20T18:42:10.783Z,99894.79
2018-03-20T18:44:38.291Z,99896.91
2018-03-20T18:47:05.963Z,99910.34
2018-03-20T18:49:33.491Z,99909.08
2018-03-20T18:52:01.039Z,99912.41
2018-03-20T18:54:28.743Z,99920.17
2018-03-20T18:56:56.320Z,99914.80
2018-03-20T18:59:23.844Z,99918.78
2018-03-20T19:01:51.404Z,99925.95
2018-03-20T19:04:18.956Z,99932.02
2018-03-20T19:06:46.559Z,99937.69
2018-03-20T19:09:14.128Z,99943.42
2018-03-20T19:11:41.768Z,99949.66
2018-03-20T19:14:09.371Z,99943.73
2018-03-20T19:16:37.018Z,99948.71
2018-03-20T19:19:05.600Z,99953.88
2018-03-20T19:21:33.385Z,99962.32
2018-03-20T19:24:00.929Z,99963.70
2018-03-20T19:26:28.687Z,99963.34
2018-03-20T19:28:56.315Z,99974.55
2018-03-20T19:31:24.569Z,99967.58
2018-03-20T19:33:52.104Z,99981.38
2018-03-20T19:36:19.788Z,99981.09
2018-03-20T19:38:48.088Z,99944.86
2018-03-20T19:41:15.829Z,99995.35
2018-03-20T19:43:43.376Z,99991.07
2018-03-20T19:46:11.411Z,99992.38
2018-03-20T19:48:38.931Z,99994.52
2018-03-20T19:51:11.514Z,99999.92
2018-03-20T19:53:39.152Z,100003.39
2018-03-20T19:56:06.848Z,100011.86
2018-03-20T19:58:34.378Z,100012.90
2018-03-20T20:01:01.929Z,100018.55
2018-03-20T20:03:29.495Z,100033.29
2018-03-20T20:05:57.085Z,100019.45
2018-03-20T20:08:24.660Z,100023.97
2018-03-20T20:10:52.228Z,100026.86
2018-03-20T20:13:19.772Z,100038.81
2018-03-20T20:15:47.307Z,100030.89
2018-03-20T20:18:14.857Z,100029.06
2018-03-20T20:20:42.409Z,100038.43
2018-03-20T20:23:09.962Z,100041.39
2018-03-20T20:25:37.523Z,100054.13
2018-03-20T20:28:05.081Z,100050.27
2018-03-20T20:30:32.688Z,100058.02
2018-03-20T20:33:00.245Z,100059.69
2018-03-20T20:35:27.784Z,100065.81
2018-03-20T20:37:55.367Z,100071.13
2018-03-20T20:40:22.892Z,100082.51
2018-03-20T20:42:50.440Z,100079.26
2018-03-20T20:45:17.952Z,100079.06
2018-03-20T20:47:45.487Z,100079.44
2018-03-20T20:50:13.033Z,100085.23
2018-03-20T20:52:40.560Z,100091.89
2018-03-20T20:55:08.114Z,100088.36
2018-03-20T20:57:35.675Z,100093.55
2018-03-20T21:00:03.263Z,100091.46
2018-03-20T21:02:30.771Z,100103.53
2018-03-20T21:04:58.329Z,100098.43
2018-03-20T21:07:25.880Z,100095.48
2018-03-20T21:09:53.407Z,100102.61
2018-03-20T21:12:21.878Z,100090.27
2018-03-20T21:14:49.401Z,100101.09
2018-03-20T21:17:17.494Z,100096.22
2018-03-20T21:19:45.020Z,100103.32
2018-03-20T21:22:12.584Z,100104.41
2018-03-20T21:24:40.580Z,100112.89
2018-03-20T21:27:08.240Z,100115.92
2018-03-20T21:29:35.823Z,100112.76
2018-03-20T21:32:03.784Z,100109.25
2018-03-20T21:34:31.685Z,100121.50
2018-03-20T21:36:59.353Z,100118.98
2018-03-20T21:39:26.886Z,100117.68
2018-03-20T21:41:55.566Z,100114.77
2018-03-20T21:44:24.628Z,100132.39
2018-03-20T21:46:53.040Z,100117.05
2018-03-20T21:49:20.577Z,100111.92
2018-03-20T21:51:48.488Z,100115.34
2018-03-20T21:54:16.404Z,100125.65
2018-03-20T21:56:44.005Z,100115.02
2018-03-20T21:59:12.223Z,100122.84
2018-03-20T22:01:39.791Z,100120.27
2018-03-20T22:04:07.408Z,100120.76
2018-03-20T22:06:35.011Z,100136.68
2018-03-20T22:09:02.750Z,100125.04
2018-03-20T22:11:30.510Z,100130.23
2018-03-20T22:13:58.333Z,100132.78
2018-03-20T22:16:26.271Z,100132.47
2018-03-20T22:18:54.246Z,100151.51
2018-03-20T22:21:22.766Z,100133.44
2018-03-20T22:23:50.323Z,100147.33
2018-03-20T22:26:18.045Z,100140.47
2018-03-20T22:28:46.230Z,100152.45
2018-03-20T22:31:13.783Z,100156.83
2018-03-20T22:33:41.405Z,100152.11
2018-03-20T22:36:09.660Z,100147.83
2018-03-20T22:38:37.954Z,100162.11
2018-03-20T22:41:05.497Z,100164.67
2018-03-20T22:43:33.243Z,100164.23
2018-03-20T22:46:01.042Z,100168.94
2018-03-20T22:48:29.352Z,100174.17
2018-03-20T22:50:56.896Z,100175.97
2018-03-20T22:53:25.471Z,100196.19
2018-03-20T22:55:54.738Z,100177.27
2018-03-20T22:58:22.519Z,100178.61
2018-03-20T23:00:50.063Z,100181.20
2018-03-20T23:03:18.033Z,100189.04
2018-03-20T23:05:45.716Z,100187.73
2018-03-20T23:08:13.283Z,100189.49
2018-03-20T23:10:40.818Z,100190.80
2018-03-20T23:13:08.376Z,100195.95
2018-03-20T23:15:35.919Z,100184.44
2018-03-20T23:18:03.476Z,100194.79
2018-03-20T23:20:31.069Z,100186.69
2018-03-20T23:23:01.058Z,100198.69
2018-03-20T23:25:28.685Z,100192.69
2018-03-20T23:27:57.054Z,100200.81
2018-03-20T23:30:25.456Z,100166.93
2018-03-20T23:32:54.187Z,100206.91
2018-03-20T23:35:22.986Z,100207.39
2018-03-20T23:37:50.841Z,100215.09
2018-03-20T23:40:18.740Z,100211.23
2018-03-20T23:42:46.301Z,100212.95
2018-03-20T23:45:14.015Z,100209.92
2018-03-20T23:47:42.141Z,100212.92
2018-03-20T23:50:09.963Z,100210.37
2018-03-20T23:52:37.889Z,100213.80
2018-03-20T23:55:06.503Z,100220.67
2018-03-20T23:57:34.127Z,100215.06
